WetterOnline ( http://www.wetteronline.de )

Wetter aktuell Waldmünchen

Aktuelles Wetter: Waldmünchen (499m)

6-stündlich | Neueste Meldungen
Ortszeit Temperatur Wetter
Di, 19.02. 19:00 5.1° C bedeckt
Di, 19.02. 13:00 7.6° C bewölkt
Di, 19.02. 7:00 -5.7° C wolkenlos
Di, 19.02. 1:00 -4.7° C wolkenlos
Mo, 18.02. 19:00 0.4° C wolkenlos
Mo, 18.02. 13:00 9.1° C wolkenlos
Mo, 18.02. 7:00 -6.3° C wolkenlos
Mo, 18.02. 1:00 -4.2° C wolkig
Ortszeit Temperatur Wetter
Di, 19.02. 23:00 0.7° C leicht bewölkt
Di, 19.02. 22:50 0.7° C leicht bewölkt
Di, 19.02. 22:40 1.2° C bedeckt
Di, 19.02. 22:30 1.4° C bewölkt
Di, 19.02. 22:20 1.4° C bedeckt
Di, 19.02. 22:10 1.9° C leicht bewölkt
Di, 19.02. 22:00 1.2° C fast wolkenlos
Di, 19.02. 21:30 2.8° C wolkig
Di, 19.02. 21:00 3.5° C leicht bewölkt
Di, 19.02. 20:30 3.2° C leicht bewölkt
Di, 19.02. 20:00 3.6° C bewölkt
Ortszeit Relative Feuchte Sichtweite
Di, 19.02. 19:00 77% 18 km
Di, 19.02. 13:00 59% 19 km
Di, 19.02. 7:00 96% 10 km
Di, 19.02. 1:00 93% 17 km
Mo, 18.02. 19:00 82% 27 km
Mo, 18.02. 13:00 40% 16 km
Mo, 18.02. 7:00 92% 35 km
Mo, 18.02. 1:00 91% 25 km
Ortszeit Relative Feuchte Sichtweite
Di, 19.02. 23:00 93% 15 km
Di, 19.02. 22:50 93% -
Di, 19.02. 22:40 93% -
Di, 19.02. 22:30 90% 16 km
Di, 19.02. 22:20 90% -
Di, 19.02. 22:10 90% -
Di, 19.02. 22:00 88% 12 km
Di, 19.02. 21:30 87% 15 km
Di, 19.02. 21:00 84% 15 km
Di, 19.02. 20:30 84% 15 km
Di, 19.02. 20:00 82% 17 km
Ortszeit Niederschlagsmenge Niederschlagsart
Di, 19.02. 19:00 0.1 l/m2 in 12 Std. Regen
Di, 19.02. 13:00 0.0 l/m2 in 6 Std. -
Di, 19.02. 7:00 0.0 l/m2 in 12 Std. -
Di, 19.02. 1:00 0.0 l/m2 in 6 Std. -
Mo, 18.02. 19:00 0.0 l/m2 in 12 Std. -
Mo, 18.02. 13:00 0.0 l/m2 in 6 Std. -
Mo, 18.02. 7:00 0.0 l/m2 in 12 Std. -
Mo, 18.02. 1:00 0.0 l/m2 in 6 Std. -
Ortszeit Niederschlagsmenge Niederschlagsart
Di, 19.02. 23:00 0.0 l/m2 in 1 Std. -
Di, 19.02. 22:50 keine Meldung -
Di, 19.02. 22:40 keine Meldung -
Di, 19.02. 22:30 0.0 l/m2 in 1 Std. -
Di, 19.02. 22:20 keine Meldung -
Di, 19.02. 22:10 keine Meldung -
Di, 19.02. 22:00 0.0 l/m2 in 1 Std. -
Di, 19.02. 21:30 0.0 l/m2 in 1 Std. -
Di, 19.02. 21:00 0.0 l/m2 in 1 Std. -
Di, 19.02. 20:30 0.0 l/m2 in 1 Std. -
Di, 19.02. 20:00 0.0 l/m2 in 1 Std. -
Ortszeit Stärke Spitze Richtung
km/h Bft. km/h Grad Sektor
Di, 19.02. 19:00 7 2 22 310° NW
Di, 19.02. 13:00 9 2 15 250° W
Di, 19.02. 7:00 0 0 14 - -
Di, 19.02. 1:00 4 1 11 190° S
Mo, 18.02. 19:00 4 1 7 20° N
Mo, 18.02. 13:00 6 1 7 300° NW
Mo, 18.02. 7:00 4 1 7 150° SO
Mo, 18.02. 1:00 4 1 7 70° O
Ortszeit Stärke Spitze Richtung
km/h Bft. km/h Grad Sektor
Di, 19.02. 23:00 4 1 11 70° O
Di, 19.02. 22:50 4 1 - 70° O
Di, 19.02. 22:40 6 1 - 70° O
Di, 19.02. 22:30 7 2 11 80° O
Di, 19.02. 22:20 7 2 - 80° O
Di, 19.02. 22:10 6 1 - 100° O
Di, 19.02. 22:00 4 1 11 30° NO
Di, 19.02. 21:30 4 1 7 290° W
Di, 19.02. 21:00 4 1 18 80° O
Di, 19.02. 20:30 4 1 18 320° NW
Di, 19.02. 20:00 9 2 15 260° W
Ortszeit Untergrenze Bedeckung Gattung
total tief tief mittel hoch
Di, 19.02. 19:00 780 m 8/8 8/8 - - -
Di, 19.02. 13:00 1470 m 7/8 7/8 - - -
Di, 19.02. 7:00 - 0/8 0/8 - - -
Di, 19.02. 1:00 - 0/8 0/8 - - -
Mo, 18.02. 19:00 - 0/8 0/8 - - -
Mo, 18.02. 13:00 - 0/8 0/8 - - -
Mo, 18.02. 7:00 - 0/8 0/8 - - -
Mo, 18.02. 1:00 8100 m 8/8 0/8 - - -
Ortszeit Bedeckungsgrad in Achtel und Wolkenuntergrenze
Di, 19.02. 23:00 3(720m)
Di, 19.02. 22:50 3(720m)
Di, 19.02. 22:40 9 9 9
Di, 19.02. 22:30 4(690m) 9 9
Di, 19.02. 22:20 9 9 9
Di, 19.02. 22:10 2(660m)
Di, 19.02. 22:00 1(720m)
Di, 19.02. 21:30 7(570m) 5(720m)
Di, 19.02. 21:00 4(570m)
Di, 19.02. 20:30 3(570m) 4(750m)
Di, 19.02. 20:00 7(630m) 9 9
Ortszeit Luftdruck NN (hPa) Tendenz (hPa in 3 Std.)
Di, 19.02. 19:00 1022 + 0,9
Di, 19.02. 13:00 1021 - 0,7
Di, 19.02. 7:00 1023 + 0,2
Di, 19.02. 1:00 1023 - 0,1
Mo, 18.02. 19:00 1022 - 0,3
Mo, 18.02. 13:00 1022 - 1,4
Mo, 18.02. 7:00 1027 - 0,4
Mo, 18.02. 1:00 1028 - 0,3
Ortszeit Luftdruck NN (hPa) Tendenz (hPa in 3 Std.)
Di, 19.02. 23:00 1024 + 1,2
Di, 19.02. 22:50 1024 keine Meldung
Di, 19.02. 22:40 1024 keine Meldung
Di, 19.02. 22:30 1024 + 1,1
Di, 19.02. 22:20 1024 keine Meldung
Di, 19.02. 22:10 1024 keine Meldung
Di, 19.02. 22:00 1024 + 1,2
Di, 19.02. 21:30 1023 + 1,5
Di, 19.02. 21:00 1023 + 1,6
Di, 19.02. 20:30 1022 + 1,3
Di, 19.02. 20:00 1022 + 1,0
Ortszeit Schneehöhe (cm)
Di, 19.02. 19:00 4
Di, 19.02. 13:00 6
Di, 19.02. 7:00 7
Di, 19.02. 1:00 7
Mo, 18.02. 19:00 7
Mo, 18.02. 13:00 6
Mo, 18.02. 7:00 7
Mo, 18.02. 1:00 7
Ortszeit Schneehöhe (cm)
Di, 19.02. 23:00 4
Di, 19.02. 22:50 4
Di, 19.02. 22:40 4
Di, 19.02. 22:30 4
Di, 19.02. 22:20 4
Di, 19.02. 22:10 4
Di, 19.02. 22:00 4
Di, 19.02. 21:30 4
Di, 19.02. 21:00 4
Di, 19.02. 20:30 4
Di, 19.02. 20:00 4
Link zu dieser Seite / Seite empfehlen

Das Wetter in ...